sensor_id;sensor_type;location;lat;lon;timestamp;P1;durP1;ratioP1;P2;durP2;ratioP2
10226;SDS011;15634;48.766;2.272;2023-06-22T00:02:01;5.38;;;3.30;;
10226;SDS011;15634;48.766;2.272;2023-06-22T00:04:28;7.63;;;3.58;;
10226;SDS011;15634;48.766;2.272;2023-06-22T00:06:54;6.97;;;3.22;;
10226;SDS011;15634;48.766;2.272;2023-06-22T00:09:21;5.18;;;3.55;;
10226;SDS011;15634;48.766;2.272;2023-06-22T00:11:48;5.47;;;3.17;;
10226;SDS011;15634;48.766;2.272;2023-06-22T00:14:14;6.93;;;4.78;;
10226;SDS011;15634;48.766;2.272;2023-06-22T00:16:41;5.55;;;3.70;;
10226;SDS011;15634;48.766;2.272;2023-06-22T00:19:10;6.30;;;3.22;;
10226;SDS011;15634;48.766;2.272;2023-06-22T00:21:37;6.13;;;3.70;;
10226;SDS011;15634;48.766;2.272;2023-06-22T00:24:04;5.97;;;3.60;;
10226;SDS011;15634;48.766;2.272;2023-06-22T00:26:32;4.80;;;3.42;;
10226;SDS011;15634;48.766;2.272;2023-06-22T00:28:58;4.70;;;3.22;;
10226;SDS011;15634;48.766;2.272;2023-06-22T00:31:25;6.35;;;3.67;;
10226;SDS011;15634;48.766;2.272;2023-06-22T00:33:52;5.75;;;3.47;;
10226;SDS011;15634;48.766;2.272;2023-06-22T00:36:20;8.95;;;4.53;;
10226;SDS011;15634;48.766;2.272;2023-06-22T00:38:46;5.53;;;3.85;;
10226;SDS011;15634;48.766;2.272;2023-06-22T00:41:16;5.90;;;3.97;;
10226;SDS011;15634;48.766;2.272;2023-06-22T00:43:42;6.95;;;3.70;;
10226;SDS011;15634;48.766;2.272;2023-06-22T00:46:09;5.88;;;3.55;;
10226;SDS011;15634;48.766;2.272;2023-06-22T00:48:36;8.35;;;3.70;;
10226;SDS011;15634;48.766;2.272;2023-06-22T00:51:02;5.40;;;3.60;;
10226;SDS011;15634;48.766;2.272;2023-06-22T00:53:31;5.93;;;3.78;;
10226;SDS011;15634;48.766;2.272;2023-06-22T00:56:00;7.13;;;4.28;;
10226;SDS011;15634;48.766;2.272;2023-06-22T00:58:28;5.88;;;3.55;;
10226;SDS011;15634;48.766;2.272;2023-06-22T01:00:55;6.53;;;3.78;;
10226;SDS011;15634;48.766;2.272;2023-06-22T01:03:21;6.53;;;3.75;;
10226;SDS011;15634;48.766;2.272;2023-06-22T01:05:48;6.50;;;4.00;;
10226;SDS011;15634;48.766;2.272;2023-06-22T01:08:19;6.50;;;3.65;;
10226;SDS011;15634;48.766;2.272;2023-06-22T01:10:52;5.60;;;3.33;;
10226;SDS011;15634;48.766;2.272;2023-06-22T01:13:24;5.68;;;3.40;;
10226;SDS011;15634;48.766;2.272;2023-06-22T01:15:55;4.53;;;3.42;;
10226;SDS011;15634;48.766;2.272;2023-06-22T01:18:23;8.73;;;3.80;;
10226;SDS011;15634;48.766;2.272;2023-06-22T01:20:52;5.90;;;3.50;;
10226;SDS011;15634;48.766;2.272;2023-06-22T01:23:22;6.20;;;3.50;;
10226;SDS011;15634;48.766;2.272;2023-06-22T01:25:57;5.85;;;3.72;;
10226;SDS011;15634;48.766;2.272;2023-06-22T01:28:38;6.15;;;3.10;;
10226;SDS011;15634;48.766;2.272;2023-06-22T01:31:07;5.90;;;3.60;;
10226;SDS011;15634;48.766;2.272;2023-06-22T01:33:37;4.60;;;3.60;;
10226;SDS011;15634;48.766;2.272;2023-06-22T01:36:06;6.47;;;3.78;;
10226;SDS011;15634;48.766;2.272;2023-06-22T01:38:33;5.38;;;3.40;;
10226;SDS011;15634;48.766;2.272;2023-06-22T01:41:00;6.55;;;3.63;;
10226;SDS011;15634;48.766;2.272;2023-06-22T01:43:27;6.05;;;3.60;;
10226;SDS011;15634;48.766;2.272;2023-06-22T01:45:57;5.82;;;3.65;;
10226;SDS011;15634;48.766;2.272;2023-06-22T01:48:26;5.80;;;3.65;;
10226;SDS011;15634;48.766;2.272;2023-06-22T01:50:54;4.90;;;3.40;;
10226;SDS011;15634;48.766;2.272;2023-06-22T01:53:21;5.85;;;3.58;;
10226;SDS011;15634;48.766;2.272;2023-06-22T01:55:48;7.40;;;3.72;;
10226;SDS011;15634;48.766;2.272;2023-06-22T01:58:14;5.68;;;3.42;;
10226;SDS011;15634;48.766;2.272;2023-06-22T02:00:42;5.72;;;3.90;;
10226;SDS011;15634;48.766;2.272;2023-06-22T02:03:13;5.63;;;3.45;;
10226;SDS011;15634;48.766;2.272;2023-06-22T02:05:43;7.30;;;3.63;;
10226;SDS011;15634;48.766;2.272;2023-06-22T02:08:15;4.90;;;3.70;;
10226;SDS011;15634;48.766;2.272;2023-06-22T02:10:44;7.55;;;4.00;;
10226;SDS011;15634;48.766;2.272;2023-06-22T02:13:11;6.10;;;3.80;;
10226;SDS011;15634;48.766;2.272;2023-06-22T02:15:39;6.13;;;3.72;;
10226;SDS011;15634;48.766;2.272;2023-06-22T02:18:05;6.95;;;3.80;;
10226;SDS011;15634;48.766;2.272;2023-06-22T02:20:34;9.02;;;4.28;;
10226;SDS011;15634;48.766;2.272;2023-06-22T02:23:02;6.22;;;4.00;;
10226;SDS011;15634;48.766;2.272;2023-06-22T02:25:29;6.57;;;3.97;;
10226;SDS011;15634;48.766;2.272;2023-06-22T02:27:57;5.38;;;3.72;;
10226;SDS011;15634;48.766;2.272;2023-06-22T02:30:23;6.10;;;3.80;;
10226;SDS011;15634;48.766;2.272;2023-06-22T02:32:50;7.97;;;4.40;;
10226;SDS011;15634;48.766;2.272;2023-06-22T02:37:51;7.15;;;3.97;;
10226;SDS011;15634;48.766;2.272;2023-06-22T02:40:18;5.40;;;3.72;;
10226;SDS011;15634;48.766;2.272;2023-06-22T02:42:44;6.97;;;4.03;;
10226;SDS011;15634;48.766;2.272;2023-06-22T02:45:11;6.38;;;3.88;;
10226;SDS011;15634;48.766;2.272;2023-06-22T02:47:38;5.75;;;3.90;;
10226;SDS011;15634;48.766;2.272;2023-06-22T02:50:06;6.55;;;4.18;;
10226;SDS011;15634;48.766;2.272;2023-06-22T02:52:32;7.10;;;3.78;;
10226;SDS011;15634;48.766;2.272;2023-06-22T02:55:01;5.85;;;4.00;;
10226;SDS011;15634;48.766;2.272;2023-06-22T02:57:28;10.60;;;4.53;;
10226;SDS011;15634;48.766;2.272;2023-06-22T02:59:54;6.47;;;4.20;;
10226;SDS011;15634;48.766;2.272;2023-06-22T03:02:21;8.45;;;3.88;;
10226;SDS011;15634;48.766;2.272;2023-06-22T03:04:48;4.93;;;3.78;;
10226;SDS011;15634;48.766;2.272;2023-06-22T03:07:15;7.47;;;4.30;;
10226;SDS011;15634;48.766;2.272;2023-06-22T03:09:42;6.47;;;3.90;;
10226;SDS011;15634;48.766;2.272;2023-06-22T03:12:11;6.63;;;4.30;;
10226;SDS011;15634;48.766;2.272;2023-06-22T03:14:37;9.27;;;3.85;;
10226;SDS011;15634;48.766;2.272;2023-06-22T03:17:04;6.38;;;4.25;;
10226;SDS011;15634;48.766;2.272;2023-06-22T03:19:31;6.18;;;4.03;;
10226;SDS011;15634;48.766;2.272;2023-06-22T03:21:59;6.57;;;4.00;;
10226;SDS011;15634;48.766;2.272;2023-06-22T03:24:25;7.40;;;3.90;;
10226;SDS011;15634;48.766;2.272;2023-06-22T03:26:54;6.28;;;4.28;;
10226;SDS011;15634;48.766;2.272;2023-06-22T03:29:23;5.35;;;3.72;;
10226;SDS011;15634;48.766;2.272;2023-06-22T03:31:50;5.68;;;3.83;;
10226;SDS011;15634;48.766;2.272;2023-06-22T03:34:17;8.63;;;4.20;;
10226;SDS011;15634;48.766;2.272;2023-06-22T03:36:44;6.53;;;3.95;;
10226;SDS011;15634;48.766;2.272;2023-06-22T03:39:11;7.32;;;4.28;;
10226;SDS011;15634;48.766;2.272;2023-06-22T03:41:38;6.82;;;4.25;;
10226;SDS011;15634;48.766;2.272;2023-06-22T03:44:04;9.15;;;4.25;;
10226;SDS011;15634;48.766;2.272;2023-06-22T03:46:32;7.32;;;3.90;;
10226;SDS011;15634;48.766;2.272;2023-06-22T03:48:59;9.15;;;4.30;;
10226;SDS011;15634;48.766;2.272;2023-06-22T03:51:28;5.63;;;4.10;;
10226;SDS011;15634;48.766;2.272;2023-06-22T03:53:54;6.95;;;4.03;;
10226;SDS011;15634;48.766;2.272;2023-06-22T03:56:21;8.43;;;4.05;;
10226;SDS011;15634;48.766;2.272;2023-06-22T03:58:48;6.28;;;4.40;;
10226;SDS011;15634;48.766;2.272;2023-06-22T04:01:14;5.00;;;4.00;;
10226;SDS011;15634;48.766;2.272;2023-06-22T04:03:43;8.05;;;4.30;;
10226;SDS011;15634;48.766;2.272;2023-06-22T04:06:10;7.20;;;4.15;;
10226;SDS011;15634;48.766;2.272;2023-06-22T04:08:36;6.10;;;3.90;;
10226;SDS011;15634;48.766;2.272;2023-06-22T04:11:03;7.32;;;4.32;;
10226;SDS011;15634;48.766;2.272;2023-06-22T04:13:30;6.15;;;4.20;;
10226;SDS011;15634;48.766;2.272;2023-06-22T04:15:57;6.28;;;3.83;;
10226;SDS011;15634;48.766;2.272;2023-06-22T04:18:23;8.55;;;4.53;;
10226;SDS011;15634;48.766;2.272;2023-06-22T04:20:51;7.63;;;5.35;;
10226;SDS011;15634;48.766;2.272;2023-06-22T04:23:18;7.78;;;5.00;;
10226;SDS011;15634;48.766;2.272;2023-06-22T04:25:45;7.30;;;4.32;;
10226;SDS011;15634;48.766;2.272;2023-06-22T04:28:11;10.70;;;5.82;;
10226;SDS011;15634;48.766;2.272;2023-06-22T04:30:38;8.02;;;5.13;;
10226;SDS011;15634;48.766;2.272;2023-06-22T04:33:11;9.52;;;4.53;;
10226;SDS011;15634;48.766;2.272;2023-06-22T04:35:38;12.85;;;7.22;;
10226;SDS011;15634;48.766;2.272;2023-06-22T04:38:08;7.57;;;4.38;;
10226;SDS011;15634;48.766;2.272;2023-06-22T04:40:35;8.60;;;4.82;;
10226;SDS011;15634;48.766;2.272;2023-06-22T04:43:02;11.95;;;6.63;;
10226;SDS011;15634;48.766;2.272;2023-06-22T04:45:31;10.30;;;5.30;;
10226;SDS011;15634;48.766;2.272;2023-06-22T04:47:58;8.48;;;5.28;;
10226;SDS011;15634;48.766;2.272;2023-06-22T04:50:24;5.78;;;4.22;;
10226;SDS011;15634;48.766;2.272;2023-06-22T04:52:51;8.70;;;4.85;;
10226;SDS011;15634;48.766;2.272;2023-06-22T04:55:19;8.82;;;4.90;;
10226;SDS011;15634;48.766;2.272;2023-06-22T04:57:46;9.57;;;5.32;;
10226;SDS011;15634;48.766;2.272;2023-06-22T05:00:14;7.13;;;4.60;;
10226;SDS011;15634;48.766;2.272;2023-06-22T05:02:42;7.47;;;5.10;;
10226;SDS011;15634;48.766;2.272;2023-06-22T05:05:10;7.57;;;5.18;;
10226;SDS011;15634;48.766;2.272;2023-06-22T05:07:39;9.15;;;5.20;;
10226;SDS011;15634;48.766;2.272;2023-06-22T05:10:08;10.40;;;5.82;;
10226;SDS011;15634;48.766;2.272;2023-06-22T05:12:36;10.00;;;5.10;;
10226;SDS011;15634;48.766;2.272;2023-06-22T05:15:04;9.48;;;5.45;;
10226;SDS011;15634;48.766;2.272;2023-06-22T05:17:31;8.13;;;5.57;;
10226;SDS011;15634;48.766;2.272;2023-06-22T05:19:58;9.68;;;5.25;;
10226;SDS011;15634;48.766;2.272;2023-06-22T05:22:25;8.45;;;5.68;;
10226;SDS011;15634;48.766;2.272;2023-06-22T05:24:51;11.15;;;5.75;;
10226;SDS011;15634;48.766;2.272;2023-06-22T05:27:18;9.68;;;5.60;;
10226;SDS011;15634;48.766;2.272;2023-06-22T05:29:46;10.20;;;5.85;;
10226;SDS011;15634;48.766;2.272;2023-06-22T05:32:12;10.45;;;6.20;;
10226;SDS011;15634;48.766;2.272;2023-06-22T05:34:39;10.15;;;6.47;;
10226;SDS011;15634;48.766;2.272;2023-06-22T05:37:06;9.57;;;5.82;;
10226;SDS011;15634;48.766;2.272;2023-06-22T05:39:34;12.40;;;6.40;;
10226;SDS011;15634;48.766;2.272;2023-06-22T05:42:03;8.88;;;6.40;;
10226;SDS011;15634;48.766;2.272;2023-06-22T05:44:30;11.15;;;6.80;;
10226;SDS011;15634;48.766;2.272;2023-06-22T05:46:59;10.20;;;6.90;;
10226;SDS011;15634;48.766;2.272;2023-06-22T05:49:26;13.70;;;7.50;;
10226;SDS011;15634;48.766;2.272;2023-06-22T05:51:54;12.82;;;7.70;;
10226;SDS011;15634;48.766;2.272;2023-06-22T05:54:21;13.10;;;7.32;;
10226;SDS011;15634;48.766;2.272;2023-06-22T05:56:48;12.65;;;7.60;;
10226;SDS011;15634;48.766;2.272;2023-06-22T05:59:15;14.32;;;8.30;;
10226;SDS011;15634;48.766;2.272;2023-06-22T06:01:42;14.60;;;9.15;;
10226;SDS011;15634;48.766;2.272;2023-06-22T06:04:10;17.33;;;9.23;;
10226;SDS011;15634;48.766;2.272;2023-06-22T06:06:37;15.68;;;9.45;;
10226;SDS011;15634;48.766;2.272;2023-06-22T06:09:03;17.80;;;9.98;;
10226;SDS011;15634;48.766;2.272;2023-06-22T06:11:30;16.55;;;10.07;;
10226;SDS011;15634;48.766;2.272;2023-06-22T06:13:57;21.90;;;11.98;;
10226;SDS011;15634;48.766;2.272;2023-06-22T06:16:24;19.35;;;12.43;;
10226;SDS011;15634;48.766;2.272;2023-06-22T06:18:50;20.55;;;12.45;;
10226;SDS011;15634;48.766;2.272;2023-06-22T06:21:22;22.77;;;12.80;;
10226;SDS011;15634;48.766;2.272;2023-06-22T06:23:49;26.95;;;14.18;;
10226;SDS011;15634;48.766;2.272;2023-06-22T06:26:16;24.63;;;13.23;;
10226;SDS011;15634;48.766;2.272;2023-06-22T06:28:42;28.57;;;14.07;;
10226;SDS011;15634;48.766;2.272;2023-06-22T06:31:09;26.13;;;14.32;;
10226;SDS011;15634;48.766;2.272;2023-06-22T06:33:37;30.98;;;15.15;;
10226;SDS011;15634;48.766;2.272;2023-06-22T06:36:03;28.15;;;15.27;;
10226;SDS011;15634;48.766;2.272;2023-06-22T06:38:32;34.72;;;16.60;;
10226;SDS011;15634;48.766;2.272;2023-06-22T06:40:59;40.05;;;18.15;;
10226;SDS011;15634;48.766;2.272;2023-06-22T06:43:26;43.35;;;17.85;;
10226;SDS011;15634;48.766;2.272;2023-06-22T06:45:52;30.75;;;16.83;;
10226;SDS011;15634;48.766;2.272;2023-06-22T06:48:19;36.13;;;18.25;;
10226;SDS011;15634;48.766;2.272;2023-06-22T06:50:45;37.53;;;19.25;;
10226;SDS011;15634;48.766;2.272;2023-06-22T06:55:43;42.27;;;18.33;;
10226;SDS011;15634;48.766;2.272;2023-06-22T06:58:10;38.72;;;19.15;;
10226;SDS011;15634;48.766;2.272;2023-06-22T07:00:38;37.58;;;19.35;;
10226;SDS011;15634;48.766;2.272;2023-06-22T07:03:05;45.58;;;21.92;;
10226;SDS011;15634;48.766;2.272;2023-06-22T07:05:33;56.47;;;22.73;;
10226;SDS011;15634;48.766;2.272;2023-06-22T07:08:00;43.85;;;21.42;;
10226;SDS011;15634;48.766;2.272;2023-06-22T07:10:28;46.70;;;22.75;;
10226;SDS011;15634;48.766;2.272;2023-06-22T07:12:56;50.20;;;23.85;;
10226;SDS011;15634;48.766;2.272;2023-06-22T07:15:23;52.15;;;24.02;;
10226;SDS011;15634;48.766;2.272;2023-06-22T07:17:50;48.90;;;23.58;;
10226;SDS011;15634;48.766;2.272;2023-06-22T07:20:16;47.15;;;24.42;;
10226;SDS011;15634;48.766;2.272;2023-06-22T07:22:44;46.47;;;23.60;;
10226;SDS011;15634;48.766;2.272;2023-06-22T07:25:11;56.83;;;25.40;;
10226;SDS011;15634;48.766;2.272;2023-06-22T07:27:39;51.13;;;25.08;;
10226;SDS011;15634;48.766;2.272;2023-06-22T07:30:12;53.60;;;26.17;;
10226;SDS011;15634;48.766;2.272;2023-06-22T07:32:39;64.80;;;27.73;;
10226;SDS011;15634;48.766;2.272;2023-06-22T07:35:07;58.35;;;28.60;;
10226;SDS011;15634;48.766;2.272;2023-06-22T07:37:34;62.67;;;28.15;;
10226;SDS011;15634;48.766;2.272;2023-06-22T07:40:01;59.05;;;28.48;;
10226;SDS011;15634;48.766;2.272;2023-06-22T07:42:31;54.97;;;27.00;;
10226;SDS011;15634;48.766;2.272;2023-06-22T07:44:59;60.20;;;29.83;;
10226;SDS011;15634;48.766;2.272;2023-06-22T07:47:28;58.65;;;29.10;;
10226;SDS011;15634;48.766;2.272;2023-06-22T07:49:55;53.88;;;27.92;;
10226;SDS011;15634;48.766;2.272;2023-06-22T07:52:23;35.50;;;20.67;;
10226;SDS011;15634;48.766;2.272;2023-06-22T07:54:50;52.03;;;25.55;;
10226;SDS011;15634;48.766;2.272;2023-06-22T07:57:17;52.55;;;27.20;;
10226;SDS011;15634;48.766;2.272;2023-06-22T07:59:44;52.22;;;27.05;;
10226;SDS011;15634;48.766;2.272;2023-06-22T08:02:11;47.00;;;24.67;;
10226;SDS011;15634;48.766;2.272;2023-06-22T08:04:39;52.05;;;26.63;;
10226;SDS011;15634;48.766;2.272;2023-06-22T08:07:07;54.25;;;27.63;;
10226;SDS011;15634;48.766;2.272;2023-06-22T08:09:34;53.90;;;25.70;;
10226;SDS011;15634;48.766;2.272;2023-06-22T08:12:02;39.88;;;21.17;;
10226;SDS011;15634;48.766;2.272;2023-06-22T08:14:29;51.42;;;26.80;;
10226;SDS011;15634;48.766;2.272;2023-06-22T08:16:55;39.53;;;19.95;;
10226;SDS011;15634;48.766;2.272;2023-06-22T08:19:22;41.88;;;24.40;;
10226;SDS011;15634;48.766;2.272;2023-06-22T08:21:50;57.15;;;27.65;;
10226;SDS011;15634;48.766;2.272;2023-06-22T08:24:18;46.13;;;23.67;;
10226;SDS011;15634;48.766;2.272;2023-06-22T08:26:44;39.63;;;22.20;;
10226;SDS011;15634;48.766;2.272;2023-06-22T08:29:11;45.33;;;25.70;;
10226;SDS011;15634;48.766;2.272;2023-06-22T08:31:38;46.80;;;25.05;;
10226;SDS011;15634;48.766;2.272;2023-06-22T08:34:04;40.90;;;21.65;;
10226;SDS011;15634;48.766;2.272;2023-06-22T08:36:31;43.90;;;22.73;;
10226;SDS011;15634;48.766;2.272;2023-06-22T08:39:01;44.65;;;24.10;;
10226;SDS011;15634;48.766;2.272;2023-06-22T08:41:28;47.63;;;23.52;;
10226;SDS011;15634;48.766;2.272;2023-06-22T08:43:55;51.53;;;26.33;;
10226;SDS011;15634;48.766;2.272;2023-06-22T08:46:22;58.22;;;28.10;;
10226;SDS011;15634;48.766;2.272;2023-06-22T08:48:55;56.70;;;27.85;;
10226;SDS011;15634;48.766;2.272;2023-06-22T08:51:21;55.45;;;27.20;;
10226;SDS011;15634;48.766;2.272;2023-06-22T08:53:48;54.72;;;28.08;;
10226;SDS011;15634;48.766;2.272;2023-06-22T08:56:16;61.08;;;29.02;;
10226;SDS011;15634;48.766;2.272;2023-06-22T08:58:43;55.65;;;28.20;;
10226;SDS011;15634;48.766;2.272;2023-06-22T09:01:10;55.75;;;29.33;;
10226;SDS011;15634;48.766;2.272;2023-06-22T09:03:37;56.75;;;29.38;;
10226;SDS011;15634;48.766;2.272;2023-06-22T09:06:04;57.30;;;29.45;;
10226;SDS011;15634;48.766;2.272;2023-06-22T09:08:31;51.15;;;26.77;;
10226;SDS011;15634;48.766;2.272;2023-06-22T09:10:58;64.28;;;28.08;;
10226;SDS011;15634;48.766;2.272;2023-06-22T09:15:59;60.67;;;29.38;;
10226;SDS011;15634;48.766;2.272;2023-06-22T09:18:26;61.05;;;28.80;;
10226;SDS011;15634;48.766;2.272;2023-06-22T09:20:52;55.13;;;28.35;;
10226;SDS011;15634;48.766;2.272;2023-06-22T09:23:19;53.38;;;28.80;;
10226;SDS011;15634;48.766;2.272;2023-06-22T09:25:46;54.65;;;28.33;;
10226;SDS011;15634;48.766;2.272;2023-06-22T09:28:13;62.25;;;30.63;;
10226;SDS011;15634;48.766;2.272;2023-06-22T09:30:42;62.20;;;29.55;;
10226;SDS011;15634;48.766;2.272;2023-06-22T09:33:09;55.55;;;27.15;;
10226;SDS011;15634;48.766;2.272;2023-06-22T09:35:36;57.90;;;28.35;;
10226;SDS011;15634;48.766;2.272;2023-06-22T09:38:02;52.42;;;26.33;;
10226;SDS011;15634;48.766;2.272;2023-06-22T09:40:29;54.90;;;27.52;;
10226;SDS011;15634;48.766;2.272;2023-06-22T09:42:57;54.47;;;28.27;;
10226;SDS011;15634;48.766;2.272;2023-06-22T09:45:24;50.60;;;28.23;;
10226;SDS011;15634;48.766;2.272;2023-06-22T09:47:52;53.70;;;26.75;;
10226;SDS011;15634;48.766;2.272;2023-06-22T09:50:33;55.75;;;28.50;;
10226;SDS011;15634;48.766;2.272;2023-06-22T09:52:59;51.80;;;26.70;;
10226;SDS011;15634;48.766;2.272;2023-06-22T09:55:26;51.80;;;25.73;;
10226;SDS011;15634;48.766;2.272;2023-06-22T09:57:53;45.53;;;24.02;;
10226;SDS011;15634;48.766;2.272;2023-06-22T10:00:20;48.13;;;25.85;;
10226;SDS011;15634;48.766;2.272;2023-06-22T10:02:47;54.90;;;26.08;;
10226;SDS011;15634;48.766;2.272;2023-06-22T10:05:15;46.13;;;25.98;;
10226;SDS011;15634;48.766;2.272;2023-06-22T10:07:43;47.42;;;25.10;;
10226;SDS011;15634;48.766;2.272;2023-06-22T10:10:10;49.65;;;25.95;;
10226;SDS011;15634;48.766;2.272;2023-06-22T10:12:40;43.70;;;24.85;;
10226;SDS011;15634;48.766;2.272;2023-06-22T10:15:08;45.70;;;24.60;;
10226;SDS011;15634;48.766;2.272;2023-06-22T10:17:35;39.80;;;22.00;;
10226;SDS011;15634;48.766;2.272;2023-06-22T10:20:02;37.25;;;20.70;;
10226;SDS011;15634;48.766;2.272;2023-06-22T10:22:38;40.88;;;22.13;;
10226;SDS011;15634;48.766;2.272;2023-06-22T10:25:08;38.55;;;20.80;;
10226;SDS011;15634;48.766;2.272;2023-06-22T10:27:38;34.03;;;19.92;;
10226;SDS011;15634;48.766;2.272;2023-06-22T10:30:06;30.77;;;18.00;;
10226;SDS011;15634;48.766;2.272;2023-06-22T10:32:33;28.23;;;16.88;;
10226;SDS011;15634;48.766;2.272;2023-06-22T10:35:01;29.33;;;17.02;;
10226;SDS011;15634;48.766;2.272;2023-06-22T10:37:28;24.67;;;16.23;;
10226;SDS011;15634;48.766;2.272;2023-06-22T10:39:55;25.02;;;15.95;;
10226;SDS011;15634;48.766;2.272;2023-06-22T10:42:23;20.83;;;14.57;;
10226;SDS011;15634;48.766;2.272;2023-06-22T10:44:50;21.58;;;14.15;;
10226;SDS011;15634;48.766;2.272;2023-06-22T10:47:16;22.05;;;14.75;;
10226;SDS011;15634;48.766;2.272;2023-06-22T10:49:43;21.05;;;13.45;;
10226;SDS011;15634;48.766;2.272;2023-06-22T10:52:10;18.40;;;12.15;;
10226;SDS011;15634;48.766;2.272;2023-06-22T10:54:37;20.67;;;13.10;;
10226;SDS011;15634;48.766;2.272;2023-06-22T10:57:04;18.02;;;12.18;;
10226;SDS011;15634;48.766;2.272;2023-06-22T10:59:32;18.63;;;12.43;;
10226;SDS011;15634;48.766;2.272;2023-06-22T11:01:59;22.65;;;12.70;;
10226;SDS011;15634;48.766;2.272;2023-06-22T11:04:25;20.55;;;11.95;;
10226;SDS011;15634;48.766;2.272;2023-06-22T11:06:52;15.52;;;11.05;;
10226;SDS011;15634;48.766;2.272;2023-06-22T11:09:19;18.10;;;12.07;;
10226;SDS011;15634;48.766;2.272;2023-06-22T11:11:46;19.23;;;11.98;;
10226;SDS011;15634;48.766;2.272;2023-06-22T11:14:13;16.50;;;11.20;;
10226;SDS011;15634;48.766;2.272;2023-06-22T11:16:41;17.33;;;11.07;;
10226;SDS011;15634;48.766;2.272;2023-06-22T11:19:08;16.85;;;11.10;;
10226;SDS011;15634;48.766;2.272;2023-06-22T11:21:35;18.20;;;11.63;;
10226;SDS011;15634;48.766;2.272;2023-06-22T11:24:02;19.50;;;11.50;;
10226;SDS011;15634;48.766;2.272;2023-06-22T11:26:29;16.92;;;10.63;;
10226;SDS011;15634;48.766;2.272;2023-06-22T11:28:56;17.20;;;9.82;;
10226;SDS011;15634;48.766;2.272;2023-06-22T11:31:23;21.00;;;11.07;;
10226;SDS011;15634;48.766;2.272;2023-06-22T11:33:51;14.77;;;10.23;;
10226;SDS011;15634;48.766;2.272;2023-06-22T11:36:18;15.57;;;9.52;;
10226;SDS011;15634;48.766;2.272;2023-06-22T11:38:45;13.55;;;9.10;;
10226;SDS011;15634;48.766;2.272;2023-06-22T11:41:11;13.70;;;9.23;;
10226;SDS011;15634;48.766;2.272;2023-06-22T11:43:38;13.60;;;8.63;;
10226;SDS011;15634;48.766;2.272;2023-06-22T11:46:05;14.07;;;8.57;;
10226;SDS011;15634;48.766;2.272;2023-06-22T11:48:32;14.02;;;9.20;;
10226;SDS011;15634;48.766;2.272;2023-06-22T11:51:00;12.63;;;8.15;;
10226;SDS011;15634;48.766;2.272;2023-06-22T11:53:27;12.80;;;9.18;;
10226;SDS011;15634;48.766;2.272;2023-06-22T11:55:54;14.05;;;9.05;;
10226;SDS011;15634;48.766;2.272;2023-06-22T11:58:21;12.85;;;9.60;;
10226;SDS011;15634;48.766;2.272;2023-06-22T12:00:48;14.30;;;8.93;;
10226;SDS011;15634;48.766;2.272;2023-06-22T12:03:15;11.82;;;8.40;;
10226;SDS011;15634;48.766;2.272;2023-06-22T12:05:42;11.60;;;7.78;;
10226;SDS011;15634;48.766;2.272;2023-06-22T12:08:10;11.88;;;7.55;;
10226;SDS011;15634;48.766;2.272;2023-06-22T12:10:37;12.18;;;7.70;;
10226;SDS011;15634;48.766;2.272;2023-06-22T12:13:03;12.50;;;6.80;;
10226;SDS011;15634;48.766;2.272;2023-06-22T12:15:30;11.90;;;7.65;;
10226;SDS011;15634;48.766;2.272;2023-06-22T12:17:57;10.77;;;7.22;;
10226;SDS011;15634;48.766;2.272;2023-06-22T12:20:23;11.15;;;7.03;;
10226;SDS011;15634;48.766;2.272;2023-06-22T12:22:50;10.00;;;6.93;;
10226;SDS011;15634;48.766;2.272;2023-06-22T12:25:20;10.30;;;6.68;;
10226;SDS011;15634;48.766;2.272;2023-06-22T12:27:47;10.70;;;6.88;;
10226;SDS011;15634;48.766;2.272;2023-06-22T12:30:15;10.70;;;7.00;;
10226;SDS011;15634;48.766;2.272;2023-06-22T12:32:42;10.48;;;6.72;;
10226;SDS011;15634;48.766;2.272;2023-06-22T12:35:09;10.38;;;7.32;;
10226;SDS011;15634;48.766;2.272;2023-06-22T12:37:39;13.02;;;7.68;;
10226;SDS011;15634;48.766;2.272;2023-06-22T12:40:07;11.45;;;8.45;;
10226;SDS011;15634;48.766;2.272;2023-06-22T12:42:36;10.38;;;7.82;;
10226;SDS011;15634;48.766;2.272;2023-06-22T12:45:03;12.65;;;8.38;;
10226;SDS011;15634;48.766;2.272;2023-06-22T12:47:31;11.85;;;8.55;;
10226;SDS011;15634;48.766;2.272;2023-06-22T12:49:58;11.07;;;7.70;;
10226;SDS011;15634;48.766;2.272;2023-06-22T12:52:24;12.68;;;7.85;;
10226;SDS011;15634;48.766;2.272;2023-06-22T12:54:51;14.35;;;7.55;;
10226;SDS011;15634;48.766;2.272;2023-06-22T12:57:19;10.77;;;7.70;;
10226;SDS011;15634;48.766;2.272;2023-06-22T12:59:47;12.93;;;8.05;;
10226;SDS011;15634;48.766;2.272;2023-06-22T13:02:14;14.35;;;8.63;;
10226;SDS011;15634;48.766;2.272;2023-06-22T13:04:40;10.75;;;7.95;;
10226;SDS011;15634;48.766;2.272;2023-06-22T13:07:08;11.75;;;7.72;;
10226;SDS011;15634;48.766;2.272;2023-06-22T13:09:35;11.55;;;7.70;;
10226;SDS011;15634;48.766;2.272;2023-06-22T13:12:02;11.32;;;7.80;;
10226;SDS011;15634;48.766;2.272;2023-06-22T13:14:29;11.32;;;7.25;;
10226;SDS011;15634;48.766;2.272;2023-06-22T13:16:57;10.95;;;7.78;;
10226;SDS011;15634;48.766;2.272;2023-06-22T13:19:24;10.70;;;7.22;;
10226;SDS011;15634;48.766;2.272;2023-06-22T13:21:53;15.25;;;7.78;;
10226;SDS011;15634;48.766;2.272;2023-06-22T13:24:20;11.70;;;8.55;;
10226;SDS011;15634;48.766;2.272;2023-06-22T13:26:47;14.65;;;8.40;;
10226;SDS011;15634;48.766;2.272;2023-06-22T13:29:13;11.82;;;7.72;;
10226;SDS011;15634;48.766;2.272;2023-06-22T13:31:40;11.27;;;7.95;;
10226;SDS011;15634;48.766;2.272;2023-06-22T13:34:08;12.35;;;8.30;;
10226;SDS011;15634;48.766;2.272;2023-06-22T13:36:35;15.07;;;9.13;;
10226;SDS011;15634;48.766;2.272;2023-06-22T13:39:01;12.35;;;8.40;;
10226;SDS011;15634;48.766;2.272;2023-06-22T13:41:28;12.27;;;7.72;;
10226;SDS011;15634;48.766;2.272;2023-06-22T13:43:55;11.63;;;8.48;;
10226;SDS011;15634;48.766;2.272;2023-06-22T13:46:22;13.13;;;8.48;;
10226;SDS011;15634;48.766;2.272;2023-06-22T13:48:49;13.20;;;8.30;;
10226;SDS011;15634;48.766;2.272;2023-06-22T13:51:17;12.55;;;8.85;;
10226;SDS011;15634;48.766;2.272;2023-06-22T13:53:43;13.70;;;8.73;;
10226;SDS011;15634;48.766;2.272;2023-06-22T13:56:10;13.52;;;9.57;;
10226;SDS011;15634;48.766;2.272;2023-06-22T13:58:37;12.48;;;8.93;;
10226;SDS011;15634;48.766;2.272;2023-06-22T14:01:03;17.52;;;8.77;;
10226;SDS011;15634;48.766;2.272;2023-06-22T14:03:30;13.20;;;8.88;;
10226;SDS011;15634;48.766;2.272;2023-06-22T14:05:57;14.02;;;8.77;;
10226;SDS011;15634;48.766;2.272;2023-06-22T14:08:25;13.32;;;8.60;;
10226;SDS011;15634;48.766;2.272;2023-06-22T14:10:51;14.32;;;8.80;;
10226;SDS011;15634;48.766;2.272;2023-06-22T14:13:19;12.95;;;7.88;;
10226;SDS011;15634;48.766;2.272;2023-06-22T14:15:46;13.98;;;9.00;;
10226;SDS011;15634;48.766;2.272;2023-06-22T14:18:14;13.80;;;8.73;;
10226;SDS011;15634;48.766;2.272;2023-06-22T14:20:40;12.25;;;8.45;;
10226;SDS011;15634;48.766;2.272;2023-06-22T14:23:07;14.15;;;8.25;;
10226;SDS011;15634;48.766;2.272;2023-06-22T14:25:35;14.70;;;7.10;;
10226;SDS011;15634;48.766;2.272;2023-06-22T14:28:02;10.57;;;7.15;;
10226;SDS011;15634;48.766;2.272;2023-06-22T14:30:28;14.80;;;7.97;;
10226;SDS011;15634;48.766;2.272;2023-06-22T14:32:55;11.93;;;7.75;;
10226;SDS011;15634;48.766;2.272;2023-06-22T14:35:21;11.05;;;7.50;;
10226;SDS011;15634;48.766;2.272;2023-06-22T14:37:49;10.85;;;7.10;;
10226;SDS011;15634;48.766;2.272;2023-06-22T14:40:16;10.63;;;7.47;;
10226;SDS011;15634;48.766;2.272;2023-06-22T14:42:44;12.93;;;7.22;;